Time;durP1;ratioP1;P1;durP2;ratioP2;P2;SDS_P1;SDS_P2;PMS_P1;PMS_P2;Temp;Humidity;BMP_temperature;BMP_pressure;BME280_temperature;BME280_humidity;BME280_pressure;Samples;Min_cycle;Max_cycle;Signal;HPM_P1;HPM_P2
2023/05/14 00:02:23;;;;;;;13.77;9.45;;;;;;;25.29;54.54;96211.13;4945727;29;20082;-47
2023/05/14 00:04:52;;;;;;;13.30;10.40;;;;;;;24.85;56.17;96210.81;4943769;29;20087;-56
2023/05/14 00:07:20;;;;;;;13.82;10.38;;;;;;;24.92;58.17;96202.59;4943601;29;20799;-56
2023/05/14 00:09:50;;;;;;;13.55;10.32;;;;;;;24.78;57.37;96203.94;4945022;29;20086;-58
2023/05/14 00:12:18;;;;;;;12.57;9.65;;;;;;;25.27;55.19;96198.91;4946251;28;20091;-58
2023/05/14 00:14:46;;;;;;;13.38;10.02;;;;;;;24.52;58.45;96199.94;4942931;29;20094;-57
2023/05/14 00:17:15;;;;;;;15.20;10.35;;;;;;;24.39;59.80;96203.66;4941965;29;20151;-53
2023/05/14 00:19:43;;;;;;;16.00;9.95;;;;;;;24.81;56.88;96192.66;4943871;29;20090;-53
2023/05/14 00:22:11;;;;;;;12.77;9.98;;;;;;;24.51;57.95;96195.59;4945200;29;20098;-49
2023/05/14 00:24:40;;;;;;;13.57;10.68;;;;;;;24.26;59.66;96185.91;4946743;28;20480;-54
2023/05/14 00:27:09;;;;;;;13.48;9.50;;;;;;;24.37;59.06;96178.84;4945556;29;20093;-49
2023/05/14 00:29:38;;;;;;;13.23;9.47;;;;;;;24.25;60.53;96183.44;4943231;28;20075;-51
2023/05/14 00:32:07;;;;;;;14.68;10.20;;;;;;;24.44;58.25;96176.06;4945854;28;20078;-56
2023/05/14 00:34:35;;;;;;;15.00;9.93;;;;;;;24.50;59.57;96183.16;4943626;29;20555;-53
2023/05/14 00:37:03;;;;;;;14.30;10.38;;;;;;;24.63;57.90;96185.56;4942416;29;20086;-55
2023/05/14 00:39:32;;;;;;;13.25;9.80;;;;;;;25.08;54.97;96176.69;4940658;29;20082;-54
2023/05/14 00:42:00;;;;;;;12.77;9.25;;;;;;;24.42;58.17;96180.84;4945947;29;20079;-49
2023/05/14 00:44:29;;;;;;;13.30;9.98;;;;;;;24.91;56.40;96181.25;4943885;28;20091;-54
2023/05/14 00:46:58;;;;;;;14.23;10.25;;;;;;;24.36;58.55;96183.41;4943935;29;20087;-52
2023/05/14 00:49:27;;;;;;;13.57;10.20;;;;;;;23.93;60.83;96186.53;4945413;29;20086;-50
2023/05/14 00:51:57;;;;;;;14.75;10.18;;;;;;;24.52;57.51;96189.13;4945495;29;20799;-55
2023/05/14 00:54:26;;;;;;;12.65;9.55;;;;;;;24.49;56.89;96185.03;4942130;29;20078;-54
2023/05/14 00:56:54;;;;;;;13.88;9.93;;;;;;;24.57;57.42;96176.59;4945931;29;20098;-51
2023/05/14 00:59:23;;;;;;;13.15;9.82;;;;;;;23.99;60.02;96184.78;4943299;29;20087;-53
2023/05/14 01:01:52;;;;;;;14.43;9.82;;;;;;;24.75;56.12;96185.53;4946618;28;20097;-54
2023/05/14 01:04:21;;;;;;;15.63;11.32;;;;;;;23.98;58.79;96189.31;4944355;29;20094;-54
2023/05/14 01:06:56;;;;;;;14.50;9.43;;;;;;;24.17;58.68;96192.72;4945009;29;20094;-54
2023/05/14 01:09:28;;;;;;;15.00;9.77;;;;;;;23.95;58.21;96181.75;4944713;29;20102;-57
2023/05/14 01:12:02;;;;;;;13.57;9.20;;;;;;;23.84;61.04;96172.59;4946502;29;20090;-52
2023/05/14 01:14:36;;;;;;;11.38;7.68;;;;;;;23.48;61.70;96178.19;4945656;29;20597;-53
2023/05/14 01:17:06;;;;;;;13.95;9.70;;;;;;;24.22;57.83;96178.50;4945921;29;20086;-51
2023/05/14 01:19:36;;;;;;;;;;;;;;;24.70;55.81;96175.47;4945738;28;20082;-49
2023/05/14 01:22:05;;;;;;;15.13;9.60;;;;;;;23.87;58.47;96177.50;4943539;29;19964;-49
2023/05/14 01:24:34;;;;;;;13.20;10.10;;;;;;;23.74;59.05;96176.94;4941609;29;20081;-52
2023/05/14 01:27:07;;;;;;;13.95;10.40;;;;;;;24.20;57.58;96168.00;4944002;29;20094;-52
2023/05/14 01:29:37;;;;;;;14.30;10.10;;;;;;;24.51;55.17;96171.34;4941935;29;20091;-54
2023/05/14 01:32:06;;;;;;;;;;;;;;;24.14;56.22;96172.44;4945669;29;20102;-49
2023/05/14 01:34:36;;;;;;;12.57;9.15;;;;;;;24.10;58.10;96173.97;4939814;29;19998;-49
2023/05/14 01:37:06;;;;;;;15.60;10.25;;;;;;;24.41;55.56;96171.13;4941434;28;20082;-52
2023/05/14 01:39:37;;;;;;;13.63;9.98;;;;;;;24.31;54.91;96171.72;4945449;29;20083;-49
2023/05/14 01:42:06;;;;;;;13.10;10.15;;;;;;;24.99;53.08;96165.50;4945252;29;20091;-53
2023/05/14 01:44:35;;;;;;;15.10;10.07;;;;;;;25.28;51.29;96163.56;4946389;28;20126;-47
2023/05/14 01:47:03;;;;;;;13.73;9.85;;;;;;;25.12;51.63;96158.16;4947155;29;20083;-55
2023/05/14 01:49:32;;;;;;;12.32;7.80;;;;;;;23.85;55.57;96165.34;4947474;29;20549;-58
2023/05/14 01:52:00;;;;;;;13.63;9.70;;;;;;;24.28;55.50;96161.41;4948626;29;21262;-52
2023/05/14 01:54:30;;;;;;;14.27;10.13;;;;;;;25.19;52.10;96159.66;4947361;28;20543;-54
2023/05/14 01:56:58;;;;;;;14.23;9.68;;;;;;;23.66;56.75;96165.44;4948663;29;20078;-58
2023/05/14 01:59:28;;;;;;;13.15;9.23;;;;;;;24.39;55.10;96165.94;4947989;29;20090;-57
2023/05/14 02:01:56;;;;;;;14.70;9.98;;;;;;;24.23;54.89;96156.75;4948716;29;20090;-55
2023/05/14 02:04:25;;;;;;;15.93;11.15;;;;;;;23.67;55.82;96163.56;4948379;29;20090;-53
2023/05/14 02:06:53;;;;;;;14.27;10.20;;;;;;;24.12;56.02;96149.47;4946775;29;20094;-49
2023/05/14 02:09:22;;;;;;;15.93;11.57;;;;;;;24.69;54.01;96148.75;4947979;29;20098;-52
2023/05/14 02:11:51;;;;;;;15.70;10.18;;;;;;;24.56;54.86;96156.06;4948550;28;20582;-49
2023/05/14 02:14:19;;;;;;;14.95;10.98;;;;;;;23.71;55.52;96153.16;4947426;29;20103;-51
2023/05/14 02:16:49;;;;;;;13.23;10.38;;;;;;;24.03;55.53;96151.75;4948897;29;20049;-56
2023/05/14 02:19:19;;;;;;;13.85;10.38;;;;;;;24.27;55.55;96144.41;4947409;29;20545;-57
2023/05/14 02:21:48;;;;;;;15.07;10.43;;;;;;;24.02;55.67;96149.25;4948326;29;20128;-55
2023/05/14 02:24:16;;;;;;;13.77;10.70;;;;;;;24.43;55.06;96147.44;4946467;29;20704;-54
2023/05/14 02:26:44;;;;;;;15.20;10.70;;;;;;;24.50;54.15;96154.34;4944607;28;20098;-51
2023/05/14 02:29:14;;;;;;;15.73;10.93;;;;;;;24.71;53.42;96149.31;4946965;29;20079;-54
2023/05/14 02:31:42;;;;;;;12.23;8.73;;;;;;;24.00;55.08;96144.13;4946975;29;20150;-54
2023/05/14 02:34:10;;;;;;;15.10;11.15;;;;;;;24.25;54.83;96151.09;4944441;29;20083;-52
2023/05/14 02:36:39;;;;;;;15.70;10.35;;;;;;;23.44;57.90;96153.63;4945538;29;20106;-56
2023/05/14 02:39:07;;;;;;;16.90;11.60;;;;;;;23.92;56.45;96142.63;4946995;29;20075;-50
2023/05/14 02:41:35;;;;;;;15.98;11.75;;;;;;;23.29;59.65;96140.59;4947025;29;20111;-49
2023/05/14 02:44:03;;;;;;;14.75;11.43;;;;;;;24.24;56.39;96138.69;4948090;28;20094;-54
2023/05/14 02:46:33;;;;;;;15.80;11.35;;;;;;;24.27;55.11;96139.03;4947740;29;20083;-55
2023/05/14 02:49:02;;;;;;;17.00;11.60;;;;;;;23.91;58.20;96140.16;4943616;29;20091;-56
2023/05/14 02:51:30;;;;;;;16.52;10.68;;;;;;;24.28;55.60;96139.84;4945514;29;20659;-56
2023/05/14 02:53:58;;;;;;;15.82;11.18;;;;;;;24.74;53.53;96132.66;4946432;29;20087;-55
2023/05/14 02:56:26;;;;;;;17.50;12.30;;;;;;;24.68;53.52;96131.75;4946458;28;20105;-54
2023/05/14 02:58:55;;;;;;;15.50;11.18;;;;;;;24.30;54.44;96130.47;4945844;28;20075;-55
2023/05/14 03:01:23;;;;;;;16.45;11.10;;;;;;;24.64;53.67;96130.59;4945008;28;20083;-54
2023/05/14 03:03:54;;;;;;;15.48;11.18;;;;;;;24.09;55.66;96134.63;4948586;29;20075;-57
2023/05/14 03:06:22;;;;;;;15.53;11.20;;;;;;;24.04;54.45;96134.50;4944832;29;20153;-51
2023/05/14 03:08:50;;;;;;;18.25;11.95;;;;;;;24.53;53.16;96136.84;4942493;29;20184;-57
2023/05/14 03:11:18;;;;;;;17.23;11.52;;;;;;;24.11;54.76;96134.38;4947356;29;20135;-55
2023/05/14 03:13:47;;;;;;;18.15;11.85;;;;;;;24.44;53.15;96131.03;4945469;29;20094;-53
2023/05/14 03:16:15;;;;;;;17.42;12.13;;;;;;;25.15;51.52;96136.91;4945430;29;20105;-57
2023/05/14 03:18:43;;;;;;;16.23;11.32;;;;;;;24.30;53.79;96126.97;4948583;28;20079;-55
2023/05/14 03:21:13;;;;;;;22.60;12.88;;;;;;;24.57;52.91;96127.22;4945900;29;20542;-51
2023/05/14 03:23:41;;;;;;;15.13;11.75;;;;;;;24.42;53.36;96125.06;4946778;29;20093;-52
2023/05/14 03:26:10;;;;;;;17.02;11.93;;;;;;;24.81;52.60;96125.22;4944982;29;20495;-54
2023/05/14 03:28:38;;;;;;;16.17;11.88;;;;;;;25.12;51.82;96115.00;4945292;29;20086;-53
2023/05/14 03:31:06;;;;;;;16.73;12.30;;;;;;;24.87;52.39;96121.56;4945107;29;20083;-51
2023/05/14 03:33:35;;;;;;;18.92;12.15;;;;;;;24.76;52.76;96117.06;4946003;29;20098;-51
2023/05/14 03:36:03;;;;;;;19.83;11.73;;;;;;;25.15;51.30;96111.81;4948446;28;20555;-51
2023/05/14 03:38:33;;;;;;;18.73;12.57;;;;;;;24.81;51.44;96109.03;4943986;29;20098;-56
2023/05/14 03:41:01;;;;;;;18.88;11.63;;;;;;;24.27;53.90;96111.25;4947236;29;20180;-51
2023/05/14 03:43:29;;;;;;;18.60;12.00;;;;;;;24.44;54.48;96116.75;4939718;29;20091;-50
2023/05/14 03:45:57;;;;;;;17.33;12.07;;;;;;;24.25;53.38;96111.50;4945503;29;20078;-52
2023/05/14 03:48:26;;;;;;;20.27;12.27;;;;;;;24.59;53.91;96112.44;4946318;29;20091;-57
2023/05/14 03:50:54;;;;;;;18.77;12.80;;;;;;;24.57;53.41;96116.44;4945373;29;20094;-53
2023/05/14 03:53:22;;;;;;;18.38;12.73;;;;;;;24.53;53.27;96117.97;4943290;28;20071;-53
2023/05/14 03:55:52;;;;;;;16.60;11.43;;;;;;;25.01;51.99;96111.28;4946434;28;20179;-53
2023/05/14 03:58:20;;;;;;;15.93;11.90;;;;;;;24.54;53.83;96115.06;4946067;29;20082;-55
2023/05/14 04:00:49;;;;;;;20.23;12.52;;;;;;;24.60;53.74;96113.25;4943056;29;20502;-53
2023/05/14 04:03:17;;;;;;;18.55;12.65;;;;;;;24.46;53.06;96115.44;4947014;29;20082;-54
2023/05/14 04:05:46;;;;;;;19.25;12.18;;;;;;;24.29;54.63;96120.72;4944169;29;20097;-56
2023/05/14 04:08:14;;;;;;;18.02;12.43;;;;;;;24.85;52.85;96113.72;4945451;28;20082;-49
2023/05/14 04:10:42;;;;;;;17.48;12.00;;;;;;;24.85;52.32;96110.22;4943958;28;20094;-55
2023/05/14 04:13:12;;;;;;;16.80;11.80;;;;;;;25.17;51.14;96115.09;4946203;29;20087;-55
2023/05/14 04:15:40;;;;;;;19.57;12.50;;;;;;;24.38;54.17;96119.28;4945531;29;20122;-56
2023/05/14 04:18:09;;;;;;;16.30;11.93;;;;;;;24.13;55.09;96116.94;4946726;29;20707;-48
2023/05/14 04:20:37;;;;;;;19.13;12.43;;;;;;;24.51;54.67;96120.94;4946151;29;20082;-52
2023/05/14 04:23:05;;;;;;;18.20;12.70;;;;;;;24.31;55.22;96115.94;4946443;29;20130;-56
2023/05/14 04:25:33;;;;;;;17.15;11.55;;;;;;;23.77;58.09;96120.72;4945217;28;20117;-51
2023/05/14 04:28:02;;;;;;;17.70;12.43;;;;;;;23.63;60.15;96116.63;4948340;28;20183;-55
2023/05/14 04:30:31;;;;;;;18.63;11.77;;;;;;;24.42;57.64;96118.84;4945324;29;20082;-55
2023/05/14 04:33:00;;;;;;;17.45;11.80;;;;;;;23.59;60.19;96123.53;4943848;29;20099;-54
2023/05/14 04:35:28;;;;;;;19.83;12.57;;;;;;;23.92;59.16;96123.78;4944856;29;20094;-54
2023/05/14 04:37:56;;;;;;;17.13;11.30;;;;;;;24.30;55.51;96119.69;4946758;28;20491;-56
2023/05/14 04:40:25;;;;;;;16.52;11.88;;;;;;;24.26;55.53;96120.38;4947256;29;20089;-58
2023/05/14 04:42:53;;;;;;;16.98;12.93;;;;;;;25.11;52.76;96114.16;4946775;28;20082;-53
2023/05/14 04:45:22;;;;;;;18.85;12.48;;;;;;;23.69;57.27;96127.31;4943549;29;20091;-55
2023/05/14 04:47:51;;;;;;;17.58;11.45;;;;;;;24.25;56.69;96124.97;4944612;29;20082;-53
2023/05/14 04:50:20;;;;;;;20.57;12.73;;;;;;;23.97;57.99;96119.53;4945784;29;20106;-56
2023/05/14 04:52:48;;;;;;;21.00;13.45;;;;;;;23.38;61.53;96133.84;4946444;29;20082;-53
2023/05/14 04:55:16;;;;;;;25.15;13.35;;;;;;;24.41;57.13;96119.91;4941261;29;20090;-55
2023/05/14 04:57:45;;;;;;;17.65;12.90;;;;;;;24.65;56.02;96124.16;4945448;29;20423;-52
2023/05/14 05:00:14;;;;;;;16.05;12.15;;;;;;;23.95;58.90;96121.63;4945211;28;20083;-51
2023/05/14 05:02:42;;;;;;;18.45;12.13;;;;;;;25.17;54.15;96118.59;4944358;29;20078;-55
2023/05/14 05:05:12;;;;;;;17.40;12.40;;;;;;;24.03;58.24;96123.97;4945391;29;20086;-57
2023/05/14 05:07:40;;;;;;;20.35;12.95;;;;;;;24.46;57.85;96123.50;4942903;29;20079;-55
2023/05/14 05:10:09;;;;;;;20.25;12.80;;;;;;;25.05;54.38;96126.75;4944688;29;20082;-57
2023/05/14 05:12:37;;;;;;;19.98;13.05;;;;;;;24.53;56.11;96132.28;4945869;29;20097;-54
2023/05/14 05:15:08;;;;;;;17.83;13.38;;;;;;;23.83;58.84;96127.88;4944258;29;20087;-55
2023/05/14 05:17:36;;;;;;;15.93;11.63;;;;;;;24.24;57.80;96126.03;4944876;28;20090;-52
2023/05/14 05:20:08;;;;;;;20.35;12.82;;;;;;;25.25;53.24;96125.47;4948123;28;20070;-48
2023/05/14 05:22:38;;;;;;;22.27;13.05;;;;;;;23.73;59.23;96132.22;4947802;29;20090;-54
2023/05/14 05:25:07;;;;;;;19.38;12.27;;;;;;;24.24;56.52;96127.91;4944277;29;20468;-57
2023/05/14 05:27:36;;;;;;;18.70;13.05;;;;;;;24.21;56.75;96123.00;4948431;29;20079;-54
2023/05/14 05:30:06;;;;;;;18.85;13.07;;;;;;;24.06;59.88;96123.50;4948731;29;20086;-51
2023/05/14 05:32:34;;;;;;;19.00;13.05;;;;;;;24.26;59.17;96126.63;4949594;29;20090;-53
2023/05/14 05:35:03;;;;;;;20.85;13.52;;;;;;;24.85;55.28;96121.81;4946092;28;20476;-52
2023/05/14 05:37:32;;;;;;;17.75;12.05;;;;;;;25.18;53.39;96114.81;4946785;29;20102;-51
2023/05/14 05:40:03;;;;;;;24.63;13.68;;;;;;;25.33;52.99;96116.97;4943589;29;20093;-54
2023/05/14 05:42:31;;;;;;;20.52;13.50;;;;;;;25.03;53.23;96119.94;4947523;29;20117;-54
2023/05/14 05:45:00;;;;;;;22.15;13.65;;;;;;;24.82;53.78;96121.50;4940928;28;20087;-54
2023/05/14 05:47:28;;;;;;;20.67;13.15;;;;;;;24.87;54.42;96119.69;4941015;29;20606;-55
2023/05/14 05:49:57;;;;;;;20.90;14.27;;;;;;;25.06;53.70;96120.28;4947038;28;20090;-52
2023/05/14 05:52:25;;;;;;;21.40;13.05;;;;;;;24.57;53.85;96122.66;4942251;28;20138;-54
2023/05/14 05:54:53;;;;;;;20.42;13.43;;;;;;;23.53;57.44;96132.53;4943691;29;20089;-54
2023/05/14 05:57:25;;;;;;;20.25;13.73;;;;;;;24.33;56.84;96129.19;4947398;29;20078;-53
2023/05/14 05:59:54;;;;;;;19.85;12.48;;;;;;;24.90;54.62;96129.16;4946724;29;20079;-52
2023/05/14 06:02:23;;;;;;;19.33;13.85;;;;;;;23.49;60.95;96134.06;4948432;29;20083;-52
2023/05/14 06:04:52;;;;;;;22.27;14.77;;;;;;;24.43;57.81;96133.97;4950963;29;20122;-54
2023/05/14 06:07:20;;;;;;;21.70;14.00;;;;;;;24.89;54.56;96132.13;4951303;29;20137;-51
2023/05/14 06:09:49;;;;;;;22.55;12.10;;;;;;;24.46;57.23;96133.47;4951939;28;20093;-54
2023/05/14 06:12:17;;;;;;;21.67;12.60;;;;;;;24.44;57.19;96136.44;4952091;29;20082;-55
2023/05/14 06:14:47;;;;;;;22.58;13.30;;;;;;;25.36;52.52;96134.53;4948269;29;20079;-55
2023/05/14 06:17:15;;;;;;;21.40;12.88;;;;;;;24.87;55.00;96137.75;4947907;29;20090;-56
2023/05/14 06:19:43;;;;;;;22.98;14.52;;;;;;;24.08;57.46;96132.97;4947071;29;20530;-55
2023/05/14 06:22:11;;;;;;;21.08;13.48;;;;;;;24.92;54.42;96129.75;4950523;29;20101;-54
2023/05/14 06:24:39;;;;;;;22.60;14.13;;;;;;;25.29;52.43;96127.44;4951299;28;20189;-58
2023/05/14 06:27:08;;;;;;;23.13;13.82;;;;;;;24.41;57.51;96128.81;4949948;29;20097;-55
2023/05/14 06:29:36;;;;;;;24.00;13.20;;;;;;;24.57;57.30;96127.22;4951527;29;20086;-53
2023/05/14 06:32:07;;;;;;;19.38;12.13;;;;;;;24.64;55.37;96130.59;4947968;28;20086;-52
2023/05/14 06:34:35;;;;;;;20.38;13.30;;;;;;;25.00;52.67;96131.22;4951055;29;20149;-49
2023/05/14 06:37:05;;;;;;;20.65;13.38;;;;;;;25.16;54.06;96133.16;4944481;29;20475;-55
2023/05/14 06:39:34;;;;;;;23.95;13.35;;;;;;;25.73;51.24;96121.31;4948320;29;20067;-58
2023/05/14 06:42:02;;;;;;;23.25;13.13;;;;;;;25.91;50.58;96118.38;4946683;28;20079;-54
2023/05/14 06:44:31;;;;;;;18.38;11.25;;;;;;;24.48;53.36;96128.69;4946363;29;20094;-59
2023/05/14 06:46:59;;;;;;;19.35;12.57;;;;;;;25.93;50.13;96128.94;4945437;29;20087;-52
2023/05/14 06:49:28;;;;;;;21.23;12.02;;;;;;;25.20;51.53;96128.91;4951473;29;20090;-51
2023/05/14 06:51:56;;;;;;;18.52;11.15;;;;;;;23.81;56.38;96130.00;4949037;29;20094;-54
2023/05/14 06:54:25;;;;;;;21.70;11.30;;;;;;;25.16;52.90;96127.75;4950303;29;20094;-54
2023/05/14 06:56:53;;;;;;;18.45;12.02;;;;;;;24.51;53.34;96130.91;4945689;29;20091;-55
2023/05/14 06:59:21;;;;;;;20.40;12.57;;;;;;;25.38;50.36;96119.72;4951924;28;20642;-55
2023/05/14 07:01:50;;;;;;;20.38;12.65;;;;;;;26.22;48.64;96116.88;4949491;28;20075;-52
2023/05/14 07:04:18;;;;;;;15.98;10.93;;;;;;;26.09;49.01;96122.66;4951586;29;20079;-55
2023/05/14 07:06:48;;;;;;;19.00;12.40;;;;;;;25.39;50.52;96123.25;4949016;28;20071;-50
2023/05/14 07:09:16;;;;;;;19.92;11.70;;;;;;;26.81;46.70;96118.91;4949861;28;20085;-57
2023/05/14 07:11:44;;;;;;;18.80;12.40;;;;;;;26.25;47.34;96110.94;4948166;29;20087;-52
2023/05/14 07:14:12;;;;;;;17.92;12.27;;;;;;;26.25;48.27;96118.22;4950532;29;20090;-50
2023/05/14 07:16:41;;;;;;;18.23;12.27;;;;;;;26.73;46.68;96109.31;4950613;28;20090;-52
2023/05/14 07:19:09;;;;;;;18.05;12.20;;;;;;;25.97;48.58;96103.84;4950469;29;20067;-53
2023/05/14 07:21:38;;;;;;;18.15;13.00;;;;;;;26.25;48.18;96097.41;4929545;29;20455;-55
2023/05/14 07:24:08;;;;;;;19.50;11.88;;;;;;;27.01;46.74;96093.88;4951220;29;20100;-52
2023/05/14 07:26:36;;;;;;;16.52;10.98;;;;;;;27.23;45.20;96101.16;4948366;28;20083;-55
2023/05/14 07:29:04;;;;;;;18.25;11.63;;;;;;;26.31;45.82;96095.59;4946471;29;20070;-49
2023/05/14 07:31:33;;;;;;;17.05;11.82;;;;;;;26.39;46.59;96105.16;4949746;29;20075;-53
2023/05/14 07:34:01;;;;;;;17.83;11.50;;;;;;;27.30;44.67;96101.75;4950290;28;20087;-49
2023/05/14 07:36:30;;;;;;;16.73;9.98;;;;;;;26.93;44.55;96089.75;4950287;29;20083;-55
2023/05/14 07:38:58;;;;;;;19.38;12.32;;;;;;;27.31;44.01;96089.81;4949895;29;20554;-53
2023/05/14 07:41:28;;;;;;;14.57;10.07;;;;;;;26.65;45.89;96092.75;4945627;29;20099;-51
2023/05/14 07:43:56;;;;;;;17.47;12.93;;;;;;;26.82;45.87;96098.06;4949306;28;20098;-55
2023/05/14 07:46:24;;;;;;;18.13;12.07;;;;;;;26.28;46.36;96094.22;4947442;29;20091;-54
2023/05/14 07:48:53;;;;;;;16.30;11.90;;;;;;;26.12;46.63;96097.84;4950143;28;20078;-56
2023/05/14 07:51:21;;;;;;;18.50;12.25;;;;;;;26.24;46.03;96093.09;4949034;28;20094;-52
2023/05/14 07:53:50;;;;;;;16.05;11.95;;;;;;;26.32;46.15;96093.72;4949536;29;20082;-51
2023/05/14 07:56:18;;;;;;;17.25;12.27;;;;;;;26.59;45.32;96085.66;4946805;29;20082;-54
2023/05/14 07:58:48;;;;;;;17.08;12.13;;;;;;;27.76;42.73;96086.63;4947613;29;20086;-53
2023/05/14 08:01:16;;;;;;;18.30;12.37;;;;;;;27.38;43.38;96083.09;4949219;29;20082;-50
2023/05/14 08:03:45;;;;;;;13.43;7.68;;;;;;;27.20;42.94;96084.34;4944853;29;20089;-53
2023/05/14 08:06:13;;;;;;;15.18;11.30;;;;;;;27.47;42.74;96077.22;4946039;29;20086;-55
2023/05/14 08:08:41;;;;;;;15.30;10.63;;;;;;;28.11;41.62;96080.56;4949365;28;20067;-52
2023/05/14 08:11:10;;;;;;;15.20;10.70;;;;;;;28.42;41.07;96079.84;4947072;29;20082;-55
2023/05/14 08:13:40;;;;;;;13.60;10.40;;;;;;;28.15;41.24;96070.81;4948306;29;20078;-51
2023/05/14 08:16:10;;;;;;;14.35;10.13;;;;;;;29.08;39.44;96078.09;4945548;29;20190;-52
2023/05/14 08:18:38;;;;;;;14.27;10.50;;;;;;;29.60;38.15;96069.94;4947180;28;20090;-52
2023/05/14 08:21:06;;;;;;;14.20;9.73;;;;;;;28.42;39.95;96077.16;4944660;29;20097;-55
2023/05/14 08:23:35;;;;;;;12.23;8.98;;;;;;;27.96;40.92;96079.69;4948987;28;20088;-50
2023/05/14 08:26:03;;;;;;;12.15;9.52;;;;;;;29.13;39.03;96073.75;4948734;29;20090;-52
2023/05/14 08:28:31;;;;;;;11.20;9.05;;;;;;;28.09;39.53;96080.00;4949873;29;20075;-51
2023/05/14 08:30:59;;;;;;;11.75;8.80;;;;;;;28.46;40.09;96073.66;4949118;29;20086;-57
2023/05/14 08:33:29;;;;;;;12.40;8.73;;;;;;;27.04;41.76;96090.66;4945260;29;20082;-53
2023/05/14 08:35:59;;;;;;;11.00;8.60;;;;;;;27.18;42.06;96094.59;4944191;29;20087;-55
2023/05/14 08:38:27;;;;;;;10.88;8.63;;;;;;;27.49;41.18;96088.59;4948186;29;20082;-55
2023/05/14 08:40:57;;;;;;;10.70;8.45;;;;;;;27.07;42.61;96090.16;4945925;28;20094;-52
2023/05/14 08:43:26;;;;;;;9.37;7.87;;;;;;;27.64;41.81;96086.81;4945823;29;20504;-54
2023/05/14 08:45:58;;;;;;;9.85;8.02;;;;;;;26.10;44.39;96078.34;4936999;28;20491;-55
2023/05/14 08:48:32;;;;;;;9.77;7.00;;;;;;;26.83;43.25;96073.44;4946203;29;20090;-55
2023/05/14 08:51:01;;;;;;;10.25;8.07;;;;;;;26.55;44.39;96076.44;4945384;29;20098;-51
2023/05/14 08:53:30;;;;;;;10.00;7.45;;;;;;;26.77;43.52;96066.34;4941566;28;20098;-53
2023/05/14 08:56:00;;;;;;;9.30;6.72;;;;;;;27.50;42.64;96060.44;4948269;29;20097;-55
2023/05/14 08:58:28;;;;;;;;;;;;;;;27.98;40.43;96067.50;4951513;28;20082;-51
2023/05/14 09:00:57;;;;;;;10.15;7.65;;;;;;;28.25;40.55;96066.50;4947890;29;20603;-58
2023/05/14 09:03:25;;;;;;;10.27;7.80;;;;;;;27.44;41.78;96065.81;4946835;29;20090;-55
2023/05/14 09:05:55;;;;;;;9.55;7.15;;;;;;;27.22;42.01;96075.97;4948255;29;20079;-53
2023/05/14 09:08:27;;;;;;;10.90;7.65;;;;;;;27.45;40.18;96066.63;4949539;29;20137;-48
2023/05/14 09:10:55;;;;;;;11.18;8.48;;;;;;;27.75;40.60;96065.19;4947328;29;20071;-51
2023/05/14 09:13:23;;;;;;;11.63;6.63;;;;;;;27.25;41.29;96070.00;4949768;29;20550;-50
2023/05/14 09:15:55;;;;;;;9.88;7.45;;;;;;;27.06;41.63;96075.00;4949321;28;20094;-54
2023/05/14 09:18:23;;;;;;;10.07;8.18;;;;;;;26.77;42.26;96073.66;4948972;29;20086;-50
2023/05/14 09:20:51;;;;;;;9.90;7.50;;;;;;;25.99;44.01;96069.28;4950510;29;20067;-52
2023/05/14 09:23:21;;;;;;;9.85;7.47;;;;;;;27.41;41.18;96065.53;4944480;29;20095;-51
2023/05/14 09:25:50;;;;;;;9.55;7.63;;;;;;;27.38;41.18;96069.56;4948211;29;20079;-47
2023/05/14 09:28:20;;;;;;;9.85;8.48;;;;;;;25.53;43.52;96076.78;4948285;29;20083;-57
2023/05/14 09:30:51;;;;;;;8.55;7.57;;;;;;;27.12;41.17;96073.16;4945718;28;20082;-55
2023/05/14 09:33:26;;;;;;;9.77;6.75;;;;;;;29.02;37.95;96060.16;4948191;28;20074;-51
2023/05/14 09:35:58;;;;;;;10.32;7.65;;;;;;;28.31;38.67;96066.25;4947927;29;20083;-56
2023/05/14 09:38:30;;;;;;;9.70;7.55;;;;;;;27.43;40.53;96064.19;4947378;29;20086;-52
2023/05/14 09:40:59;;;;;;;13.90;10.05;;;;;;;27.11;40.51;96072.31;4946471;29;20081;-58
2023/05/14 09:43:27;;;;;;;11.27;7.90;;;;;;;25.88;42.16;96077.50;4946028;29;20079;-59
2023/05/14 09:45:55;;;;;;;10.45;7.93;;;;;;;27.57;39.65;96061.03;4946554;29;20090;-56
2023/05/14 09:48:23;;;;;;;9.50;7.65;;;;;;;26.27;41.88;96070.97;4949070;29;20086;-52
2023/05/14 09:50:52;;;;;;;9.75;7.97;;;;;;;25.92;42.73;96068.66;4946620;28;20074;-54
2023/05/14 09:53:20;;;;;;;11.25;8.40;;;;;;;26.17;42.94;96067.34;4946795;29;20474;-54
2023/05/14 09:55:50;;;;;;;13.32;9.57;;;;;;;27.25;41.96;96055.66;4949162;29;20113;-50
2023/05/14 09:58:18;;;;;;;11.00;8.85;;;;;;;27.67;40.73;96045.66;4946752;29;20562;-55
2023/05/14 10:00:47;;;;;;;10.20;8.60;;;;;;;26.70;41.20;96054.91;4947335;29;20071;-54
2023/05/14 10:03:15;;;;;;;10.98;8.30;;;;;;;28.65;39.66;96041.38;4948324;29;20885;-56
2023/05/14 10:05:49;;;;;;;11.00;9.25;;;;;;;25.76;43.79;96053.28;4948593;28;20090;-51
2023/05/14 10:08:22;;;;;;;11.70;9.00;;;;;;;27.31;41.76;96046.50;4943680;29;20085;-50
2023/05/14 10:10:54;;;;;;;10.70;8.73;;;;;;;28.12;40.20;96046.13;4948573;29;20082;-50
2023/05/14 10:13:24;;;;;;;11.50;9.18;;;;;;;27.90;40.42;96047.13;4947873;29;20081;-49
2023/05/14 10:15:57;;;;;;;9.90;8.52;;;;;;;27.77;39.98;96044.91;4944056;28;20098;-58
2023/05/14 10:18:27;;;;;;;12.32;7.72;;;;;;;28.32;39.57;96050.78;4946955;29;20098;-48
2023/05/14 10:21:03;;;;;;;12.18;8.05;;;;;;;28.45;38.26;96042.16;4945329;29;20075;-55
2023/05/14 10:23:32;;;;;;;11.57;8.95;;;;;;;28.68;37.41;96042.75;4942962;28;20090;-56
2023/05/14 10:26:02;;;;;;;12.38;8.13;;;;;;;28.28;39.02;96046.97;4950795;29;20093;-54
2023/05/14 10:28:30;;;;;;;10.82;8.80;;;;;;;28.43;38.91;96041.63;4950449;29;20083;-55
2023/05/14 10:30:59;;;;;;;11.00;8.32;;;;;;;27.16;39.82;96052.63;4951044;29;20090;-47
2023/05/14 10:33:28;;;;;;;11.60;8.90;;;;;;;25.99;41.83;96049.56;4951034;29;20120;-48
2023/05/14 10:35:59;;;;;;;12.30;8.25;;;;;;;28.99;37.77;96041.69;4948439;29;20097;-50
2023/05/14 10:38:28;;;;;;;11.15;8.23;;;;;;;27.89;39.12;96041.97;4944852;29;20086;-54
2023/05/14 10:40:58;;;;;;;10.32;8.30;;;;;;;27.10;39.87;96061.75;4951952;28;20091;-50
2023/05/14 10:43:29;;;;;;;11.68;8.77;;;;;;;27.27;40.07;96051.63;4951419;29;20086;-55
2023/05/14 10:45:58;;;;;;;11.27;8.80;;;;;;;29.24;37.79;96042.78;4950798;29;20079;-50
2023/05/14 10:48:27;;;;;;;10.00;8.35;;;;;;;29.61;36.75;96047.09;4949095;29;20780;-56
2023/05/14 10:50:56;;;;;;;12.40;9.43;;;;;;;27.95;38.54;96049.06;4939951;28;20090;-58
2023/05/14 10:53:32;;;;;;;9.75;8.40;;;;;;;28.83;37.37;96049.00;4943512;29;20086;-47
2023/05/14 10:56:04;;;;;;;9.30;8.30;;;;;;;28.98;36.99;96042.78;4942521;29;20089;-51
2023/05/14 10:58:37;;;;;;;12.10;8.60;;;;;;;29.29;36.87;96040.06;4944800;28;20484;-48
2023/05/14 11:01:06;;;;;;;10.75;8.23;;;;;;;28.99;36.88;96049.84;4937357;29;20079;-49
2023/05/14 11:03:40;;;;;;;9.32;7.72;;;;;;;29.17;36.74;96045.75;4937687;29;20116;-50
2023/05/14 11:06:09;;;;;;;12.38;8.80;;;;;;;29.68;35.33;96039.44;4944787;29;20087;-49
2023/05/14 11:08:38;;;;;;;10.05;8.50;;;;;;;28.81;37.08;96045.75;4941724;29;20083;-54
2023/05/14 11:11:08;;;;;;;10.30;8.45;;;;;;;29.20;36.48;96047.13;4944239;29;20098;-49
2023/05/14 11:13:38;;;;;;;10.27;8.53;;;;;;;28.62;36.96;96040.03;4948538;28;20087;-54
2023/05/14 11:16:06;;;;;;;9.80;8.50;;;;;;;30.62;34.80;96034.13;4944854;29;20098;-56
2023/05/14 11:18:40;;;;;;;11.68;8.40;;;;;;;29.51;35.91;96040.53;4946084;28;20075;-50
2023/05/14 11:21:08;;;;;;;10.55;8.18;;;;;;;30.93;33.84;96030.09;4941509;29;20079;-51
2023/05/14 11:23:37;;;;;;;10.77;8.20;;;;;;;30.44;34.05;96038.31;4945331;29;20078;-48
2023/05/14 11:26:05;;;;;;;9.73;8.25;;;;;;;30.14;34.43;96037.34;4948876;28;20090;-49
2023/05/14 11:28:34;;;;;;;10.80;8.27;;;;;;;30.09;35.02;96034.66;4945896;29;20094;-53
2023/05/14 11:31:04;;;;;;;8.77;7.72;;;;;;;31.81;32.77;96024.63;4950766;28;20086;-52